sensor_id;sensor_type;location;lat;lon;timestamp;P1;durP1;ratioP1;P2;durP2;ratioP2
42702;SDS011;28341;52.064;4.920;2024-03-08T00:01:16;63.60;;;38.42;;
42702;SDS011;28341;52.064;4.920;2024-03-08T00:03:21;59.22;;;33.80;;
42702;SDS011;28341;52.064;4.920;2024-03-08T00:05:25;57.58;;;34.63;;
42702;SDS011;28341;52.064;4.920;2024-03-08T00:07:27;72.65;;;41.60;;
42702;SDS011;28341;52.064;4.920;2024-03-08T00:09:32;60.65;;;35.80;;
42702;SDS011;28341;52.064;4.920;2024-03-08T00:11:36;63.17;;;33.75;;
42702;SDS011;28341;52.064;4.920;2024-03-08T00:13:43;64.88;;;34.88;;
42702;SDS011;28341;52.064;4.920;2024-03-08T00:15:48;65.57;;;34.53;;
42702;SDS011;28341;52.064;4.920;2024-03-08T00:17:52;57.65;;;35.30;;
42702;SDS011;28341;52.064;4.920;2024-03-08T00:19:57;57.85;;;34.38;;
42702;SDS011;28341;52.064;4.920;2024-03-08T00:22:03;61.40;;;35.30;;
42702;SDS011;28341;52.064;4.920;2024-03-08T00:24:08;64.95;;;35.45;;
42702;SDS011;28341;52.064;4.920;2024-03-08T00:26:12;55.92;;;33.35;;
42702;SDS011;28341;52.064;4.920;2024-03-08T00:28:17;59.72;;;35.92;;
42702;SDS011;28341;52.064;4.920;2024-03-08T00:30:24;53.40;;;34.38;;
42702;SDS011;28341;52.064;4.920;2024-03-08T00:32:29;53.85;;;33.70;;
42702;SDS011;28341;52.064;4.920;2024-03-08T00:34:34;58.65;;;34.90;;
42702;SDS011;28341;52.064;4.920;2024-03-08T00:36:39;60.75;;;34.22;;
42702;SDS011;28341;52.064;4.920;2024-03-08T00:38:44;61.50;;;36.08;;
42702;SDS011;28341;52.064;4.920;2024-03-08T00:40:49;57.17;;;34.00;;
42702;SDS011;28341;52.064;4.920;2024-03-08T00:42:53;60.90;;;36.30;;
42702;SDS011;28341;52.064;4.920;2024-03-08T00:44:58;56.65;;;34.30;;
42702;SDS011;28341;52.064;4.920;2024-03-08T00:47:05;60.22;;;35.13;;
42702;SDS011;28341;52.064;4.920;2024-03-08T00:49:10;60.83;;;34.90;;
42702;SDS011;28341;52.064;4.920;2024-03-08T00:51:15;64.45;;;35.35;;
42702;SDS011;28341;52.064;4.920;2024-03-08T00:53:17;59.67;;;34.35;;
42702;SDS011;28341;52.064;4.920;2024-03-08T00:55:22;55.65;;;33.28;;
42702;SDS011;28341;52.064;4.920;2024-03-08T00:57:26;58.80;;;34.63;;
42702;SDS011;28341;52.064;4.920;2024-03-08T00:59:31;60.60;;;35.22;;
42702;SDS011;28341;52.064;4.920;2024-03-08T01:01:35;55.72;;;34.50;;
42702;SDS011;28341;52.064;4.920;2024-03-08T01:03:43;58.50;;;34.10;;
42702;SDS011;28341;52.064;4.920;2024-03-08T01:05:48;55.13;;;33.25;;
42702;SDS011;28341;52.064;4.920;2024-03-08T01:07:53;58.78;;;34.78;;
42702;SDS011;28341;52.064;4.920;2024-03-08T01:09:57;55.08;;;33.72;;
42702;SDS011;28341;52.064;4.920;2024-03-08T01:12:02;56.50;;;32.65;;
42702;SDS011;28341;52.064;4.920;2024-03-08T01:14:07;57.78;;;34.53;;
42702;SDS011;28341;52.064;4.920;2024-03-08T01:16:12;58.10;;;34.17;;
42702;SDS011;28341;52.064;4.920;2024-03-08T01:18:17;56.47;;;34.83;;
42702;SDS011;28341;52.064;4.920;2024-03-08T01:20:22;55.60;;;35.70;;
42702;SDS011;28341;52.064;4.920;2024-03-08T01:22:27;57.47;;;34.50;;
42702;SDS011;28341;52.064;4.920;2024-03-08T01:24:32;53.13;;;32.60;;
42702;SDS011;28341;52.064;4.920;2024-03-08T01:26:35;59.00;;;35.05;;
42702;SDS011;28341;52.064;4.920;2024-03-08T01:28:40;52.90;;;34.00;;
42702;SDS011;28341;52.064;4.920;2024-03-08T01:30:42;55.08;;;33.88;;
42702;SDS011;28341;52.064;4.920;2024-03-08T01:32:46;55.47;;;34.47;;
42702;SDS011;28341;52.064;4.920;2024-03-08T01:34:51;57.88;;;34.40;;
42702;SDS011;28341;52.064;4.920;2024-03-08T01:36:58;56.88;;;35.17;;
42702;SDS011;28341;52.064;4.920;2024-03-08T01:39:02;57.85;;;34.83;;
42702;SDS011;28341;52.064;4.920;2024-03-08T01:41:08;61.72;;;34.05;;
42702;SDS011;28341;52.064;4.920;2024-03-08T01:43:17;56.80;;;34.38;;
42702;SDS011;28341;52.064;4.920;2024-03-08T01:45:23;58.17;;;33.53;;
42702;SDS011;28341;52.064;4.920;2024-03-08T01:47:27;57.53;;;35.25;;
42702;SDS011;28341;52.064;4.920;2024-03-08T01:49:33;57.95;;;34.72;;
42702;SDS011;28341;52.064;4.920;2024-03-08T01:51:35;59.10;;;34.67;;
42702;SDS011;28341;52.064;4.920;2024-03-08T01:53:43;53.55;;;33.90;;
42702;SDS011;28341;52.064;4.920;2024-03-08T01:55:50;60.47;;;34.78;;
42702;SDS011;28341;52.064;4.920;2024-03-08T01:57:59;55.00;;;33.45;;
42702;SDS011;28341;52.064;4.920;2024-03-08T02:00:04;51.97;;;33.80;;
42702;SDS011;28341;52.064;4.920;2024-03-08T02:02:10;57.42;;;34.65;;
42702;SDS011;28341;52.064;4.920;2024-03-08T02:04:15;60.22;;;34.17;;
42702;SDS011;28341;52.064;4.920;2024-03-08T02:06:21;59.50;;;34.85;;
42702;SDS011;28341;52.064;4.920;2024-03-08T02:08:26;57.90;;;34.40;;
42702;SDS011;28341;52.064;4.920;2024-03-08T02:10:34;56.00;;;35.28;;
42702;SDS011;28341;52.064;4.920;2024-03-08T02:12:39;55.25;;;35.35;;
42702;SDS011;28341;52.064;4.920;2024-03-08T02:14:43;59.42;;;36.13;;
42702;SDS011;28341;52.064;4.920;2024-03-08T02:16:47;55.63;;;35.38;;
42702;SDS011;28341;52.064;4.920;2024-03-08T02:18:52;54.53;;;34.28;;
42702;SDS011;28341;52.064;4.920;2024-03-08T02:20:59;57.63;;;35.65;;
42702;SDS011;28341;52.064;4.920;2024-03-08T02:23:05;54.00;;;34.47;;
42702;SDS011;28341;52.064;4.920;2024-03-08T02:25:09;63.00;;;36.75;;
42702;SDS011;28341;52.064;4.920;2024-03-08T02:27:14;58.83;;;37.13;;
42702;SDS011;28341;52.064;4.920;2024-03-08T02:29:19;54.05;;;35.53;;
42702;SDS011;28341;52.064;4.920;2024-03-08T02:31:24;55.85;;;35.53;;
42702;SDS011;28341;52.064;4.920;2024-03-08T02:33:28;56.95;;;35.40;;
42702;SDS011;28341;52.064;4.920;2024-03-08T02:35:30;54.90;;;35.58;;
42702;SDS011;28341;52.064;4.920;2024-03-08T02:37:38;53.53;;;34.33;;
42702;SDS011;28341;52.064;4.920;2024-03-08T02:39:42;57.60;;;35.47;;
42702;SDS011;28341;52.064;4.920;2024-03-08T02:41:47;59.38;;;36.40;;
42702;SDS011;28341;52.064;4.920;2024-03-08T02:43:52;60.03;;;36.28;;
42702;SDS011;28341;52.064;4.920;2024-03-08T02:45:56;60.92;;;36.53;;
42702;SDS011;28341;52.064;4.920;2024-03-08T02:48:01;57.92;;;35.92;;
42702;SDS011;28341;52.064;4.920;2024-03-08T02:50:07;60.95;;;36.67;;
42702;SDS011;28341;52.064;4.920;2024-03-08T02:52:09;66.00;;;37.92;;
42702;SDS011;28341;52.064;4.920;2024-03-08T02:54:16;58.05;;;37.97;;
42702;SDS011;28341;52.064;4.920;2024-03-08T02:56:21;63.28;;;38.90;;
42702;SDS011;28341;52.064;4.920;2024-03-08T02:58:26;58.85;;;36.67;;
42702;SDS011;28341;52.064;4.920;2024-03-08T03:00:31;57.63;;;38.03;;
42702;SDS011;28341;52.064;4.920;2024-03-08T03:02:36;58.75;;;37.50;;
42702;SDS011;28341;52.064;4.920;2024-03-08T03:04:40;58.15;;;37.05;;
42702;SDS011;28341;52.064;4.920;2024-03-08T03:06:45;61.22;;;38.67;;
42702;SDS011;28341;52.064;4.920;2024-03-08T03:08:49;58.22;;;37.60;;
42702;SDS011;28341;52.064;4.920;2024-03-08T03:10:54;64.32;;;39.63;;
42702;SDS011;28341;52.064;4.920;2024-03-08T03:12:59;58.03;;;37.55;;
42702;SDS011;28341;52.064;4.920;2024-03-08T03:15:05;63.13;;;39.33;;
42702;SDS011;28341;52.064;4.920;2024-03-08T03:17:10;62.85;;;37.92;;
42702;SDS011;28341;52.064;4.920;2024-03-08T03:19:11;56.13;;;38.15;;
42702;SDS011;28341;52.064;4.920;2024-03-08T03:21:16;56.88;;;36.90;;
42702;SDS011;28341;52.064;4.920;2024-03-08T03:23:18;62.38;;;39.03;;
42702;SDS011;28341;52.064;4.920;2024-03-08T03:25:23;56.13;;;37.17;;
42702;SDS011;28341;52.064;4.920;2024-03-08T03:27:31;55.45;;;38.38;;
42702;SDS011;28341;52.064;4.920;2024-03-08T03:29:36;58.95;;;37.63;;
42702;SDS011;28341;52.064;4.920;2024-03-08T03:31:38;60.22;;;37.92;;
42702;SDS011;28341;52.064;4.920;2024-03-08T03:33:45;61.60;;;38.92;;
42702;SDS011;28341;52.064;4.920;2024-03-08T03:35:52;58.78;;;38.30;;
42702;SDS011;28341;52.064;4.920;2024-03-08T03:37:56;57.17;;;38.92;;
42702;SDS011;28341;52.064;4.920;2024-03-08T03:40:09;57.55;;;36.83;;
42702;SDS011;28341;52.064;4.920;2024-03-08T03:42:12;60.00;;;38.53;;
42702;SDS011;28341;52.064;4.920;2024-03-08T03:44:19;59.63;;;37.58;;
42702;SDS011;28341;52.064;4.920;2024-03-08T03:46:24;60.25;;;38.42;;
42702;SDS011;28341;52.064;4.920;2024-03-08T03:48:27;63.30;;;39.55;;
42702;SDS011;28341;52.064;4.920;2024-03-08T03:50:32;58.90;;;39.22;;
42702;SDS011;28341;52.064;4.920;2024-03-08T03:52:37;58.55;;;38.42;;
42702;SDS011;28341;52.064;4.920;2024-03-08T03:54:38;58.55;;;38.95;;
42702;SDS011;28341;52.064;4.920;2024-03-08T03:56:43;56.78;;;38.58;;
42702;SDS011;28341;52.064;4.920;2024-03-08T03:58:51;59.25;;;38.58;;
42702;SDS011;28341;52.064;4.920;2024-03-08T04:00:59;62.88;;;38.80;;
42702;SDS011;28341;52.064;4.920;2024-03-08T04:03:04;59.60;;;37.65;;
42702;SDS011;28341;52.064;4.920;2024-03-08T04:05:09;60.45;;;39.33;;
42702;SDS011;28341;52.064;4.920;2024-03-08T04:07:11;53.97;;;37.38;;
42702;SDS011;28341;52.064;4.920;2024-03-08T04:09:16;59.75;;;39.00;;
42702;SDS011;28341;52.064;4.920;2024-03-08T04:11:22;61.17;;;39.20;;
42702;SDS011;28341;52.064;4.920;2024-03-08T04:13:27;61.10;;;41.58;;
42702;SDS011;28341;52.064;4.920;2024-03-08T04:15:29;67.72;;;41.78;;
42702;SDS011;28341;52.064;4.920;2024-03-08T04:17:36;64.47;;;39.67;;
42702;SDS011;28341;52.064;4.920;2024-03-08T04:19:42;69.68;;;41.17;;
42702;SDS011;28341;52.064;4.920;2024-03-08T04:21:44;62.70;;;40.63;;
42702;SDS011;28341;52.064;4.920;2024-03-08T04:23:48;57.15;;;39.28;;
42702;SDS011;28341;52.064;4.920;2024-03-08T04:25:53;60.58;;;40.70;;
42702;SDS011;28341;52.064;4.920;2024-03-08T04:27:57;61.42;;;42.28;;
42702;SDS011;28341;52.064;4.920;2024-03-08T04:30:02;65.88;;;41.60;;
42702;SDS011;28341;52.064;4.920;2024-03-08T04:32:08;65.70;;;41.63;;
42702;SDS011;28341;52.064;4.920;2024-03-08T04:34:13;65.40;;;42.70;;
42702;SDS011;28341;52.064;4.920;2024-03-08T04:36:18;61.65;;;42.28;;
42702;SDS011;28341;52.064;4.920;2024-03-08T04:38:22;63.85;;;42.28;;
42702;SDS011;28341;52.064;4.920;2024-03-08T04:40:27;63.67;;;41.38;;
42702;SDS011;28341;52.064;4.920;2024-03-08T04:42:32;61.22;;;41.15;;
42702;SDS011;28341;52.064;4.920;2024-03-08T04:44:34;68.60;;;43.30;;
42702;SDS011;28341;52.064;4.920;2024-03-08T04:46:38;62.28;;;41.72;;
42702;SDS011;28341;52.064;4.920;2024-03-08T04:48:41;63.60;;;41.50;;
42702;SDS011;28341;52.064;4.920;2024-03-08T04:50:48;64.90;;;42.28;;
42702;SDS011;28341;52.064;4.920;2024-03-08T04:52:53;58.20;;;40.00;;
42702;SDS011;28341;52.064;4.920;2024-03-08T04:54:55;61.75;;;41.65;;
42702;SDS011;28341;52.064;4.920;2024-03-08T04:57:00;59.65;;;40.95;;
42702;SDS011;28341;52.064;4.920;2024-03-08T04:59:05;59.90;;;39.97;;
42702;SDS011;28341;52.064;4.920;2024-03-08T05:01:09;63.92;;;40.75;;
42702;SDS011;28341;52.064;4.920;2024-03-08T05:03:14;67.65;;;42.00;;
42702;SDS011;28341;52.064;4.920;2024-03-08T05:05:18;61.10;;;41.28;;
42702;SDS011;28341;52.064;4.920;2024-03-08T05:07:25;63.67;;;42.75;;
42702;SDS011;28341;52.064;4.920;2024-03-08T05:09:30;65.70;;;42.58;;
42702;SDS011;28341;52.064;4.920;2024-03-08T05:11:36;63.55;;;42.22;;
42702;SDS011;28341;52.064;4.920;2024-03-08T05:13:38;64.60;;;43.08;;
42702;SDS011;28341;52.064;4.920;2024-03-08T05:15:44;65.53;;;42.95;;
42702;SDS011;28341;52.064;4.920;2024-03-08T05:17:51;63.88;;;41.70;;
42702;SDS011;28341;52.064;4.920;2024-03-08T05:19:58;67.72;;;44.33;;
42702;SDS011;28341;52.064;4.920;2024-03-08T05:22:02;68.38;;;42.65;;
42702;SDS011;28341;52.064;4.920;2024-03-08T05:24:10;66.90;;;44.25;;
42702;SDS011;28341;52.064;4.920;2024-03-08T05:26:15;66.15;;;42.58;;
42702;SDS011;28341;52.064;4.920;2024-03-08T05:28:17;63.33;;;42.55;;
42702;SDS011;28341;52.064;4.920;2024-03-08T05:30:22;62.90;;;42.00;;
42702;SDS011;28341;52.064;4.920;2024-03-08T05:32:27;66.03;;;42.40;;
42702;SDS011;28341;52.064;4.920;2024-03-08T05:34:31;64.93;;;42.38;;
42702;SDS011;28341;52.064;4.920;2024-03-08T05:36:36;68.75;;;42.67;;
42702;SDS011;28341;52.064;4.920;2024-03-08T05:38:38;63.60;;;42.75;;
42702;SDS011;28341;52.064;4.920;2024-03-08T05:40:46;64.20;;;42.42;;
42702;SDS011;28341;52.064;4.920;2024-03-08T05:42:51;71.15;;;44.20;;
42702;SDS011;28341;52.064;4.920;2024-03-08T05:44:56;65.72;;;42.08;;
42702;SDS011;28341;52.064;4.920;2024-03-08T05:46:59;68.47;;;43.88;;
42702;SDS011;28341;52.064;4.920;2024-03-08T05:49:03;62.90;;;42.00;;
42702;SDS011;28341;52.064;4.920;2024-03-08T05:51:10;63.17;;;43.80;;
42702;SDS011;28341;52.064;4.920;2024-03-08T05:53:15;63.85;;;42.70;;
42702;SDS011;28341;52.064;4.920;2024-03-08T05:55:20;67.30;;;41.22;;
42702;SDS011;28341;52.064;4.920;2024-03-08T05:57:27;64.25;;;42.28;;
42702;SDS011;28341;52.064;4.920;2024-03-08T05:59:32;67.28;;;41.67;;
42702;SDS011;28341;52.064;4.920;2024-03-08T06:01:36;66.85;;;42.13;;
42702;SDS011;28341;52.064;4.920;2024-03-08T06:03:38;73.03;;;45.58;;
42702;SDS011;28341;52.064;4.920;2024-03-08T06:05:45;63.40;;;43.00;;
42702;SDS011;28341;52.064;4.920;2024-03-08T06:07:50;65.13;;;42.80;;
42702;SDS011;28341;52.064;4.920;2024-03-08T06:09:53;67.07;;;43.10;;
42702;SDS011;28341;52.064;4.920;2024-03-08T06:11:57;62.93;;;43.70;;
42702;SDS011;28341;52.064;4.920;2024-03-08T06:14:05;62.17;;;43.30;;
42702;SDS011;28341;52.064;4.920;2024-03-08T06:16:09;62.77;;;41.73;;
42702;SDS011;28341;52.064;4.920;2024-03-08T06:18:14;68.87;;;44.63;;
42702;SDS011;28341;52.064;4.920;2024-03-08T06:20:18;65.07;;;44.17;;
42702;SDS011;28341;52.064;4.920;2024-03-08T06:22:26;68.07;;;43.27;;
42702;SDS011;28341;52.064;4.920;2024-03-08T06:24:29;65.53;;;43.87;;
42702;SDS011;28341;52.064;4.920;2024-03-08T06:26:36;68.63;;;43.60;;
42702;SDS011;28341;52.064;4.920;2024-03-08T06:28:41;62.17;;;42.37;;
42702;SDS011;28341;52.064;4.920;2024-03-08T06:30:48;67.32;;;42.72;;
42702;SDS011;28341;52.064;4.920;2024-03-08T06:32:53;63.28;;;43.70;;
42702;SDS011;28341;52.064;4.920;2024-03-08T06:34:58;65.45;;;43.22;;
42702;SDS011;28341;52.064;4.920;2024-03-08T06:36:59;65.70;;;42.80;;
42702;SDS011;28341;52.064;4.920;2024-03-08T06:39:04;68.33;;;42.17;;
42702;SDS011;28341;52.064;4.920;2024-03-08T06:41:09;65.40;;;42.93;;
42702;SDS011;28341;52.064;4.920;2024-03-08T06:43:16;64.55;;;42.47;;
42702;SDS011;28341;52.064;4.920;2024-03-08T06:45:20;64.30;;;42.65;;
42702;SDS011;28341;52.064;4.920;2024-03-08T06:49:30;61.60;;;41.37;;
42702;SDS011;28341;52.064;4.920;2024-03-08T06:51:35;63.33;;;42.03;;
42702;SDS011;28341;52.064;4.920;2024-03-08T06:53:37;64.25;;;43.95;;
42702;SDS011;28341;52.064;4.920;2024-03-08T06:55:42;68.15;;;43.08;;
42702;SDS011;28341;52.064;4.920;2024-03-08T06:57:47;65.38;;;42.55;;
42702;SDS011;28341;52.064;4.920;2024-03-08T06:59:51;67.15;;;41.63;;
42702;SDS011;28341;52.064;4.920;2024-03-08T07:01:57;66.15;;;42.92;;
42702;SDS011;28341;52.064;4.920;2024-03-08T07:04:05;64.70;;;43.28;;
42702;SDS011;28341;52.064;4.920;2024-03-08T07:06:12;62.33;;;42.55;;
42702;SDS011;28341;52.064;4.920;2024-03-08T07:08:19;62.50;;;41.38;;
42702;SDS011;28341;52.064;4.920;2024-03-08T07:10:23;59.78;;;41.42;;
42702;SDS011;28341;52.064;4.920;2024-03-08T07:12:29;58.45;;;39.80;;
42702;SDS011;28341;52.064;4.920;2024-03-08T07:14:33;62.67;;;41.03;;
42702;SDS011;28341;52.064;4.920;2024-03-08T07:16:40;61.17;;;38.88;;
42702;SDS011;28341;52.064;4.920;2024-03-08T07:18:45;60.55;;;39.45;;
42702;SDS011;28341;52.064;4.920;2024-03-08T07:20:55;59.25;;;39.85;;
42702;SDS011;28341;52.064;4.920;2024-03-08T07:23:00;64.10;;;40.72;;
42702;SDS011;28341;52.064;4.920;2024-03-08T07:25:05;58.88;;;38.28;;
42702;SDS011;28341;52.064;4.920;2024-03-08T07:27:20;56.45;;;39.47;;
42702;SDS011;28341;52.064;4.920;2024-03-08T07:29:25;56.92;;;39.83;;
42702;SDS011;28341;52.064;4.920;2024-03-08T07:31:29;57.70;;;37.95;;
42702;SDS011;28341;52.064;4.920;2024-03-08T07:33:45;57.03;;;38.70;;
42702;SDS011;28341;52.064;4.920;2024-03-08T07:35:50;57.17;;;38.55;;
42702;SDS011;28341;52.064;4.920;2024-03-08T07:37:58;63.72;;;38.17;;
42702;SDS011;28341;52.064;4.920;2024-03-08T07:40:03;56.05;;;36.45;;
42702;SDS011;28341;52.064;4.920;2024-03-08T07:42:08;51.22;;;35.53;;
42702;SDS011;28341;52.064;4.920;2024-03-08T07:44:13;53.03;;;36.33;;
42702;SDS011;28341;52.064;4.920;2024-03-08T07:46:17;52.67;;;36.05;;
42702;SDS011;28341;52.064;4.920;2024-03-08T07:48:21;55.13;;;37.00;;
42702;SDS011;28341;52.064;4.920;2024-03-08T07:50:26;51.53;;;36.42;;
42702;SDS011;28341;52.064;4.920;2024-03-08T07:52:30;53.65;;;36.80;;
42702;SDS011;28341;52.064;4.920;2024-03-08T07:54:37;51.92;;;36.55;;
42702;SDS011;28341;52.064;4.920;2024-03-08T07:56:41;49.88;;;36.47;;
42702;SDS011;28341;52.064;4.920;2024-03-08T07:58:46;51.22;;;36.10;;
42702;SDS011;28341;52.064;4.920;2024-03-08T08:00:50;47.25;;;34.90;;
42702;SDS011;28341;52.064;4.920;2024-03-08T08:02:55;51.15;;;36.92;;
42702;SDS011;28341;52.064;4.920;2024-03-08T08:04:59;53.40;;;36.47;;
42702;SDS011;28341;52.064;4.920;2024-03-08T08:07:04;54.50;;;36.58;;
42702;SDS011;28341;52.064;4.920;2024-03-08T08:09:09;56.15;;;37.97;;
42702;SDS011;28341;52.064;4.920;2024-03-08T08:11:17;54.97;;;36.78;;
42702;SDS011;28341;52.064;4.920;2024-03-08T08:13:21;50.97;;;36.00;;
42702;SDS011;28341;52.064;4.920;2024-03-08T08:15:28;52.58;;;34.58;;
42702;SDS011;28341;52.064;4.920;2024-03-08T08:17:33;47.85;;;35.70;;
42702;SDS011;28341;52.064;4.920;2024-03-08T08:19:40;52.97;;;36.75;;
42702;SDS011;28341;52.064;4.920;2024-03-08T08:21:46;48.30;;;34.55;;
42702;SDS011;28341;52.064;4.920;2024-03-08T08:23:51;44.67;;;32.70;;
42702;SDS011;28341;52.064;4.920;2024-03-08T08:25:55;51.58;;;35.97;;
42702;SDS011;28341;52.064;4.920;2024-03-08T08:28:03;52.22;;;34.53;;
42702;SDS011;28341;52.064;4.920;2024-03-08T08:30:09;49.78;;;34.70;;
42702;SDS011;28341;52.064;4.920;2024-03-08T08:32:15;50.58;;;36.13;;
42702;SDS011;28341;52.064;4.920;2024-03-08T08:34:17;49.65;;;33.85;;
42702;SDS011;28341;52.064;4.920;2024-03-08T08:36:24;50.95;;;34.63;;
42702;SDS011;28341;52.064;4.920;2024-03-08T08:38:30;50.05;;;35.83;;
42702;SDS011;28341;52.064;4.920;2024-03-08T08:40:35;49.53;;;33.80;;
42702;SDS011;28341;52.064;4.920;2024-03-08T08:42:40;52.67;;;36.45;;
42702;SDS011;28341;52.064;4.920;2024-03-08T08:44:48;51.67;;;36.65;;
42702;SDS011;28341;52.064;4.920;2024-03-08T08:46:54;44.85;;;33.15;;
42702;SDS011;28341;52.064;4.920;2024-03-08T08:48:59;45.72;;;33.92;;
42702;SDS011;28341;52.064;4.920;2024-03-08T08:51:03;50.30;;;35.42;;
42702;SDS011;28341;52.064;4.920;2024-03-08T08:53:12;49.53;;;36.80;;
42702;SDS011;28341;52.064;4.920;2024-03-08T08:55:18;48.08;;;33.55;;
42702;SDS011;28341;52.064;4.920;2024-03-08T08:57:21;48.92;;;34.80;;
42702;SDS011;28341;52.064;4.920;2024-03-08T08:59:27;45.97;;;32.55;;
42702;SDS011;28341;52.064;4.920;2024-03-08T09:01:34;48.78;;;34.75;;
42702;SDS011;28341;52.064;4.920;2024-03-08T09:03:39;44.55;;;32.20;;
42702;SDS011;28341;52.064;4.920;2024-03-08T09:05:47;49.53;;;33.72;;
42702;SDS011;28341;52.064;4.920;2024-03-08T09:07:52;49.15;;;33.35;;
42702;SDS011;28341;52.064;4.920;2024-03-08T09:09:54;49.92;;;33.50;;
42702;SDS011;28341;52.064;4.920;2024-03-08T09:11:59;46.42;;;31.67;;
42702;SDS011;28341;52.064;4.920;2024-03-08T09:14:01;44.60;;;32.20;;
42702;SDS011;28341;52.064;4.920;2024-03-08T09:16:06;42.75;;;31.58;;
42702;SDS011;28341;52.064;4.920;2024-03-08T09:18:13;47.13;;;31.83;;
42702;SDS011;28341;52.064;4.920;2024-03-08T09:20:19;47.05;;;33.05;;
42702;SDS011;28341;52.064;4.920;2024-03-08T09:22:21;46.65;;;31.80;;
42702;SDS011;28341;52.064;4.920;2024-03-08T09:24:26;48.33;;;33.35;;
42702;SDS011;28341;52.064;4.920;2024-03-08T09:26:31;48.67;;;35.88;;
42702;SDS011;28341;52.064;4.920;2024-03-08T09:28:33;51.53;;;32.38;;
42702;SDS011;28341;52.064;4.920;2024-03-08T09:30:38;44.30;;;32.20;;
42702;SDS011;28341;52.064;4.920;2024-03-08T09:32:45;40.58;;;30.67;;
42702;SDS011;28341;52.064;4.920;2024-03-08T09:34:54;45.13;;;30.67;;
42702;SDS011;28341;52.064;4.920;2024-03-08T09:37:02;41.58;;;30.48;;
42702;SDS011;28341;52.064;4.920;2024-03-08T09:39:15;44.35;;;32.20;;
42702;SDS011;28341;52.064;4.920;2024-03-08T09:41:28;40.90;;;30.23;;
42702;SDS011;28341;52.064;4.920;2024-03-08T09:43:35;44.38;;;31.23;;
42702;SDS011;28341;52.064;4.920;2024-03-08T09:45:42;41.30;;;30.17;;
42702;SDS011;28341;52.064;4.920;2024-03-08T09:47:57;42.42;;;31.40;;
42702;SDS011;28341;52.064;4.920;2024-03-08T09:50:11;39.65;;;29.63;;
42702;SDS011;28341;52.064;4.920;2024-03-08T09:52:18;40.80;;;30.33;;
42702;SDS011;28341;52.064;4.920;2024-03-08T09:54:28;42.70;;;30.00;;
42702;SDS011;28341;52.064;4.920;2024-03-08T09:56:38;41.05;;;29.15;;
42702;SDS011;28341;52.064;4.920;2024-03-08T09:58:45;41.33;;;28.27;;
42702;SDS011;28341;52.064;4.920;2024-03-08T10:01:06;40.00;;;30.27;;
42702;SDS011;28341;52.064;4.920;2024-03-08T10:03:12;45.40;;;32.75;;
42702;SDS011;28341;52.064;4.920;2024-03-08T10:05:19;41.92;;;30.30;;
42702;SDS011;28341;52.064;4.920;2024-03-08T10:07:24;41.90;;;29.23;;
42702;SDS011;28341;52.064;4.920;2024-03-08T10:09:28;44.83;;;29.77;;
42702;SDS011;28341;52.064;4.920;2024-03-08T10:11:30;42.65;;;29.30;;
42702;SDS011;28341;52.064;4.920;2024-03-08T10:13:35;42.20;;;28.50;;
42702;SDS011;28341;52.064;4.920;2024-03-08T10:15:37;42.17;;;28.13;;
42702;SDS011;28341;52.064;4.920;2024-03-08T10:17:44;40.78;;;27.52;;
42702;SDS011;28341;52.064;4.920;2024-03-08T10:19:49;42.80;;;28.38;;
42702;SDS011;28341;52.064;4.920;2024-03-08T10:21:54;44.95;;;29.40;;
42702;SDS011;28341;52.064;4.920;2024-03-08T10:23:59;40.83;;;27.85;;
42702;SDS011;28341;52.064;4.920;2024-03-08T10:26:10;38.33;;;27.60;;
42702;SDS011;28341;52.064;4.920;2024-03-08T10:28:16;37.88;;;27.92;;
42702;SDS011;28341;52.064;4.920;2024-03-08T10:30:20;38.28;;;27.50;;
42702;SDS011;28341;52.064;4.920;2024-03-08T10:32:25;40.17;;;28.67;;
42702;SDS011;28341;52.064;4.920;2024-03-08T10:34:29;36.78;;;27.33;;
42702;SDS011;28341;52.064;4.920;2024-03-08T10:36:33;36.53;;;25.20;;
42702;SDS011;28341;52.064;4.920;2024-03-08T10:38:41;37.38;;;26.23;;
42702;SDS011;28341;52.064;4.920;2024-03-08T10:40:47;35.80;;;26.15;;
42702;SDS011;28341;52.064;4.920;2024-03-08T10:42:55;38.53;;;25.90;;
42702;SDS011;28341;52.064;4.920;2024-03-08T10:45:06;33.00;;;25.05;;
42702;SDS011;28341;52.064;4.920;2024-03-08T10:47:18;30.67;;;23.17;;
42702;SDS011;28341;52.064;4.920;2024-03-08T10:49:30;32.88;;;23.85;;
42702;SDS011;28341;52.064;4.920;2024-03-08T10:51:36;33.67;;;23.52;;
42702;SDS011;28341;52.064;4.920;2024-03-08T10:53:45;33.90;;;24.00;;
42702;SDS011;28341;52.064;4.920;2024-03-08T10:55:51;32.15;;;23.27;;
42702;SDS011;28341;52.064;4.920;2024-03-08T10:57:56;33.80;;;23.95;;
42702;SDS011;28341;52.064;4.920;2024-03-08T11:00:01;33.50;;;23.60;;
42702;SDS011;28341;52.064;4.920;2024-03-08T11:02:10;32.25;;;23.25;;
42702;SDS011;28341;52.064;4.920;2024-03-08T11:04:15;30.02;;;22.10;;
42702;SDS011;28341;52.064;4.920;2024-03-08T11:06:23;31.23;;;22.90;;
42702;SDS011;28341;52.064;4.920;2024-03-08T11:08:32;29.02;;;21.67;;
42702;SDS011;28341;52.064;4.920;2024-03-08T11:10:48;31.30;;;22.27;;
42702;SDS011;28341;52.064;4.920;2024-03-08T11:12:55;30.58;;;22.70;;
42702;SDS011;28341;52.064;4.920;2024-03-08T11:14:59;29.23;;;21.52;;
42702;SDS011;28341;52.064;4.920;2024-03-08T11:17:05;30.92;;;22.20;;
42702;SDS011;28341;52.064;4.920;2024-03-08T11:19:24;26.85;;;20.70;;
42702;SDS011;28341;52.064;4.920;2024-03-08T11:21:31;26.27;;;19.88;;
42702;SDS011;28341;52.064;4.920;2024-03-08T11:23:33;27.55;;;20.27;;
42702;SDS011;28341;52.064;4.920;2024-03-08T11:25:40;26.77;;;19.95;;
42702;SDS011;28341;52.064;4.920;2024-03-08T11:27:58;26.23;;;19.40;;
42702;SDS011;28341;52.064;4.920;2024-03-08T11:30:21;26.77;;;19.65;;
42702;SDS011;28341;52.064;4.920;2024-03-08T11:32:28;25.27;;;18.80;;
42702;SDS011;28341;52.064;4.920;2024-03-08T11:34:33;26.00;;;19.55;;
42702;SDS011;28341;52.064;4.920;2024-03-08T11:36:37;23.35;;;18.00;;
42702;SDS011;28341;52.064;4.920;2024-03-08T11:38:42;28.15;;;19.63;;
42702;SDS011;28341;52.064;4.920;2024-03-08T11:40:50;27.20;;;20.58;;
42702;SDS011;28341;52.064;4.920;2024-03-08T11:42:57;25.83;;;19.40;;
42702;SDS011;28341;52.064;4.920;2024-03-08T11:45:07;24.50;;;18.85;;
42702;SDS011;28341;52.064;4.920;2024-03-08T11:47:14;25.55;;;18.42;;
42702;SDS011;28341;52.064;4.920;2024-03-08T11:49:18;23.55;;;17.10;;
42702;SDS011;28341;52.064;4.920;2024-03-08T11:51:24;23.40;;;17.35;;
42702;SDS011;28341;52.064;4.920;2024-03-08T11:53:30;23.73;;;18.20;;
42702;SDS011;28341;52.064;4.920;2024-03-08T11:55:36;21.42;;;17.20;;
42702;SDS011;28341;52.064;4.920;2024-03-08T11:57:42;24.80;;;17.80;;
42702;SDS011;28341;52.064;4.920;2024-03-08T11:59:52;25.10;;;18.00;;
42702;SDS011;28341;52.064;4.920;2024-03-08T12:01:59;25.98;;;17.42;;
42702;SDS011;28341;52.064;4.920;2024-03-08T12:04:05;21.25;;;16.83;;
42702;SDS011;28341;52.064;4.920;2024-03-08T12:06:09;21.45;;;17.50;;
42702;SDS011;28341;52.064;4.920;2024-03-08T12:08:14;22.30;;;16.60;;
42702;SDS011;28341;52.064;4.920;2024-03-08T12:10:19;24.13;;;17.33;;
42702;SDS011;28341;52.064;4.920;2024-03-08T12:12:24;24.60;;;17.42;;
42702;SDS011;28341;52.064;4.920;2024-03-08T12:14:30;26.38;;;17.80;;
42702;SDS011;28341;52.064;4.920;2024-03-08T12:16:38;24.98;;;18.20;;